Arnold, North Carolina
Current Conditions -  °F | °C
As of 4:55 PM on Thursday 27 Nov 2014 (Local Time) from KEXX Reporting Station
Scattered Clouds Scattered Clouds  
Wind Chill: 39°   Ceiling: Unl
Heat Index: 43°   Visibility: 10mi
Dew Point: 26°   Wind: 6mph
Humidity: 52%   Direction: 330°NNW
Pressure: 30.17"   Gusts: NA
Location:  35.7974°N, 80.2541°W
Report Text: KEXX 272155Z AUTO 33005KT 10SM SCT050 06/M03 A3017 RMK AO2 T00591032
Loading
Personal Weather Stations






























Interactive Weather Map New forecast layout! Learn more

10-Day Weather Forecast

Advertisements
Track Severe Weather on mobile